createdAt,value
2023-01-13T00:14:18.999Z,7.07
2023-01-13T00:29:23.263Z,8.03
2023-01-13T00:44:27.614Z,6.27
2023-01-13T00:59:31.969Z,5.80
2023-01-13T01:14:36.722Z,6.50
2023-01-13T01:29:40.991Z,6.30
2023-01-13T01:44:45.143Z,8.83
2023-01-13T01:59:50.270Z,7.70
2023-01-13T02:14:54.603Z,7.67
2023-01-13T02:30:39.366Z,7.57
2023-01-13T02:45:50.197Z,6.67
2023-01-13T03:00:54.678Z,6.50
2023-01-13T03:16:17.590Z,5.47
2023-01-13T03:31:25.376Z,5.73
2023-01-13T03:47:05.614Z,5.23
2023-01-13T04:02:16.264Z,6.93
2023-01-13T04:17:21.798Z,6.30
2023-01-13T04:32:26.535Z,5.90
2023-01-13T04:47:30.652Z,6.60
2023-01-13T05:02:35.251Z,5.90
2023-01-13T05:17:39.949Z,5.77
2023-01-13T05:32:45.106Z,8.90
2023-01-13T05:47:49.432Z,8.87
2023-01-13T06:02:54.050Z,9.80
2023-01-13T06:17:58.470Z,10.83
2023-01-13T06:33:05.037Z,12.13
2023-01-13T06:48:09.437Z,14.93
2023-01-13T07:03:14.688Z,12.00
2023-01-13T07:18:18.594Z,15.33
2023-01-13T07:33:23.879Z,11.20
2023-01-13T07:48:28.951Z,8.90
2023-01-13T08:03:33.446Z,9.40
2023-01-13T08:18:38.426Z,10.10
2023-01-13T08:33:43.147Z,9.13
2023-01-13T08:48:47.830Z,8.03
2023-01-13T09:03:52.584Z,10.47
2023-01-13T09:18:56.845Z,9.87
2023-01-13T09:34:21.717Z,4.93
2023-01-13T09:49:28.811Z,5.60
2023-01-13T10:04:33.393Z,5.97
2023-01-13T10:19:46.892Z,7.20
2023-01-13T10:34:52.371Z,5.97
2023-01-13T10:50:04.509Z,2.87
2023-01-13T11:05:19.977Z,3.70
2023-01-13T11:20:33.434Z,4.10
2023-01-13T11:35:50.280Z,6.20
2023-01-13T11:50:57.423Z,6.10
2023-01-13T12:06:21.690Z,8.03
2023-01-13T12:21:30.923Z,10.00
2023-01-13T12:36:53.040Z,7.23
2023-01-13T12:51:57.604Z,8.47
2023-01-13T13:07:31.061Z,7.40
2023-01-13T13:22:45.210Z,6.20
2023-01-13T13:38:18.042Z,6.50
2023-01-13T13:53:23.210Z,6.60
2023-01-13T14:08:28.805Z,8.20
2023-01-13T14:23:33.966Z,6.70
2023-01-13T14:38:38.584Z,6.43
2023-01-13T14:53:47.672Z,6.70
2023-01-13T15:08:53.039Z,13.23
2023-01-13T15:23:57.406Z,13.43
2023-01-13T15:39:03.085Z,16.77
2023-01-13T15:54:10.634Z,17.03
2023-01-13T16:09:16.007Z,17.03
2023-01-13T16:24:20.726Z,21.20
2023-01-13T16:39:25.444Z,21.90
2023-01-13T16:54:30.214Z,22.67
2023-01-13T17:09:35.327Z,22.47
2023-01-13T17:24:39.625Z,30.13
2023-01-13T17:39:45.668Z,22.60
2023-01-13T17:54:50.142Z,25.20
2023-01-13T18:09:54.787Z,19.90
2023-01-13T18:25:21.973Z,15.10
2023-01-13T18:40:26.404Z,15.77
2023-01-13T18:55:30.570Z,15.27
2023-01-13T19:10:37.981Z,13.90
2023-01-13T19:25:42.625Z,17.90
2023-01-13T19:40:54.420Z,27.67
2023-01-13T19:55:58.508Z,21.00
2023-01-13T20:11:22.524Z,26.30
2023-01-13T20:26:27.977Z,28.53
2023-01-13T20:41:51.688Z,20.57
2023-01-13T20:56:56.111Z,18.00
2023-01-13T21:12:19.677Z,22.03
2023-01-13T21:27:24.276Z,23.70
2023-01-13T21:42:48.491Z,26.10
2023-01-13T21:57:54.189Z,32.20
2023-01-13T22:12:59.629Z,31.50
2023-01-13T22:28:06.726Z,27.87
2023-01-13T22:43:11.345Z,33.63
2023-01-13T22:58:16.163Z,26.57
2023-01-13T23:13:21.123Z,28.90
2023-01-13T23:28:25.359Z,30.97
2023-01-13T23:43:29.957Z,27.37
2023-01-13T23:58:35.286Z,30.90
